sensor_id;sensor_type;location;lat;lon;timestamp;temperature;humidity
12959;DHT22;6544;51.666;6.634;2022-09-13T00:00:40;19.30;99.90
12959;DHT22;6544;51.666;6.634;2022-09-13T00:03:08;19.40;99.90
12959;DHT22;6544;51.666;6.634;2022-09-13T00:05:36;19.40;99.90
12959;DHT22;6544;51.666;6.634;2022-09-13T00:08:03;19.30;99.90
12959;DHT22;6544;51.666;6.634;2022-09-13T00:10:30;19.40;99.90
12959;DHT22;6544;51.666;6.634;2022-09-13T00:12:59;19.30;99.90
12959;DHT22;6544;51.666;6.634;2022-09-13T00:15:27;19.30;99.90
12959;DHT22;6544;51.666;6.634;2022-09-13T00:17:54;19.30;99.90
12959;DHT22;6544;51.666;6.634;2022-09-13T00:20:21;19.30;99.90
12959;DHT22;6544;51.666;6.634;2022-09-13T00:22:48;19.30;99.90
12959;DHT22;6544;51.666;6.634;2022-09-13T00:25:15;19.20;99.90
12959;DHT22;6544;51.666;6.634;2022-09-13T00:27:42;19.20;99.90
12959;DHT22;6544;51.666;6.634;2022-09-13T00:30:11;19.20;99.90
12959;DHT22;6544;51.666;6.634;2022-09-13T00:32:39;19.20;99.90
12959;DHT22;6544;51.666;6.634;2022-09-13T00:35:07;19.10;99.90
12959;DHT22;6544;51.666;6.634;2022-09-13T00:37:34;19.10;99.90
12959;DHT22;6544;51.666;6.634;2022-09-13T00:40:02;19.10;99.90
12959;DHT22;6544;51.666;6.634;2022-09-13T00:42:30;19.00;99.90
12959;DHT22;6544;51.666;6.634;2022-09-13T00:44:59;19.10;99.90
12959;DHT22;6544;51.666;6.634;2022-09-13T00:47:34;19.10;99.90
12959;DHT22;6544;51.666;6.634;2022-09-13T00:50:09;19.10;99.90
12959;DHT22;6544;51.666;6.634;2022-09-13T00:52:38;19.10;99.90
12959;DHT22;6544;51.666;6.634;2022-09-13T00:55:10;19.10;99.90
12959;DHT22;6544;51.666;6.634;2022-09-13T00:57:39;19.10;99.90
12959;DHT22;6544;51.666;6.634;2022-09-13T01:00:09;19.10;99.90
12959;DHT22;6544;51.666;6.634;2022-09-13T01:02:39;19.10;99.90
12959;DHT22;6544;51.666;6.634;2022-09-13T01:05:09;19.10;99.90
12959;DHT22;6544;51.666;6.634;2022-09-13T01:07:36;19.10;99.90
12959;DHT22;6544;51.666;6.634;2022-09-13T01:10:05;19.10;99.90
12959;DHT22;6544;51.666;6.634;2022-09-13T01:12:36;19.10;99.90
12959;DHT22;6544;51.666;6.634;2022-09-13T01:15:09;19.10;99.90
12959;DHT22;6544;51.666;6.634;2022-09-13T01:17:37;19.10;99.90
12959;DHT22;6544;51.666;6.634;2022-09-13T01:20:07;19.10;99.90
12959;DHT22;6544;51.666;6.634;2022-09-13T01:23:03;19.00;99.90
12959;DHT22;6544;51.666;6.634;2022-09-13T01:26:01;19.00;99.90
12959;DHT22;6544;51.666;6.634;2022-09-13T01:28:45;19.00;99.90
12959;DHT22;6544;51.666;6.634;2022-09-13T01:31:24;19.10;99.90
12959;DHT22;6544;51.666;6.634;2022-09-13T01:34:08;19.00;99.90
12959;DHT22;6544;51.666;6.634;2022-09-13T01:36:53;19.00;99.90
12959;DHT22;6544;51.666;6.634;2022-09-13T01:39:31;18.90;99.90
12959;DHT22;6544;51.666;6.634;2022-09-13T01:42:10;19.00;99.90
12959;DHT22;6544;51.666;6.634;2022-09-13T01:45:02;19.00;99.90
12959;DHT22;6544;51.666;6.634;2022-09-13T01:47:40;19.00;99.90
12959;DHT22;6544;51.666;6.634;2022-09-13T01:50:16;19.00;99.90
12959;DHT22;6544;51.666;6.634;2022-09-13T01:52:51;19.00;99.90
12959;DHT22;6544;51.666;6.634;2022-09-13T01:55:24;19.00;99.90
12959;DHT22;6544;51.666;6.634;2022-09-13T01:57:58;19.00;99.90
12959;DHT22;6544;51.666;6.634;2022-09-13T02:00:33;19.00;99.90
12959;DHT22;6544;51.666;6.634;2022-09-13T02:03:07;19.00;99.90
12959;DHT22;6544;51.666;6.634;2022-09-13T02:05:39;19.00;99.90
12959;DHT22;6544;51.666;6.634;2022-09-13T02:08:10;19.00;99.90
12959;DHT22;6544;51.666;6.634;2022-09-13T02:10:43;19.00;99.90
12959;DHT22;6544;51.666;6.634;2022-09-13T02:13:13;19.00;99.90
12959;DHT22;6544;51.666;6.634;2022-09-13T02:15:44;19.00;99.90
12959;DHT22;6544;51.666;6.634;2022-09-13T02:18:16;19.00;99.90
12959;DHT22;6544;51.666;6.634;2022-09-13T02:20:48;19.00;99.90
12959;DHT22;6544;51.666;6.634;2022-09-13T02:23:19;19.00;99.90
12959;DHT22;6544;51.666;6.634;2022-09-13T02:25:48;19.00;99.90
12959;DHT22;6544;51.666;6.634;2022-09-13T02:28:21;19.00;99.90
12959;DHT22;6544;51.666;6.634;2022-09-13T02:30:51;19.00;99.90
12959;DHT22;6544;51.666;6.634;2022-09-13T02:33:25;19.00;99.90
12959;DHT22;6544;51.666;6.634;2022-09-13T02:35:56;19.00;99.90
12959;DHT22;6544;51.666;6.634;2022-09-13T02:38:28;19.00;99.90
12959;DHT22;6544;51.666;6.634;2022-09-13T02:40:59;19.00;99.90
12959;DHT22;6544;51.666;6.634;2022-09-13T02:43:30;18.90;99.90
12959;DHT22;6544;51.666;6.634;2022-09-13T02:46:12;19.00;99.90
12959;DHT22;6544;51.666;6.634;2022-09-13T02:48:48;19.00;99.90
12959;DHT22;6544;51.666;6.634;2022-09-13T02:51:23;19.00;99.90
12959;DHT22;6544;51.666;6.634;2022-09-13T02:53:57;19.00;99.90
12959;DHT22;6544;51.666;6.634;2022-09-13T02:56:34;18.90;99.90
12959;DHT22;6544;51.666;6.634;2022-09-13T02:59:07;19.00;99.90
12959;DHT22;6544;51.666;6.634;2022-09-13T03:01:37;18.90;99.90
12959;DHT22;6544;51.666;6.634;2022-09-13T03:04:06;18.90;99.90
12959;DHT22;6544;51.666;6.634;2022-09-13T03:06:33;18.90;99.90
12959;DHT22;6544;51.666;6.634;2022-09-13T03:09:02;18.90;99.90
12959;DHT22;6544;51.666;6.634;2022-09-13T03:11:38;18.90;99.90
12959;DHT22;6544;51.666;6.634;2022-09-13T03:14:17;19.00;99.90
12959;DHT22;6544;51.666;6.634;2022-09-13T03:16:56;19.00;99.90
12959;DHT22;6544;51.666;6.634;2022-09-13T03:19:47;19.00;99.90
12959;DHT22;6544;51.666;6.634;2022-09-13T03:25:21;19.00;99.90
12959;DHT22;6544;51.666;6.634;2022-09-13T03:28:01;19.00;99.90
12959;DHT22;6544;51.666;6.634;2022-09-13T03:30:33;19.00;1.00
12959;DHT22;6544;51.666;6.634;2022-09-13T03:33:05;19.00;99.90
12959;DHT22;6544;51.666;6.634;2022-09-13T03:35:39;19.00;99.90
12959;DHT22;6544;51.666;6.634;2022-09-13T03:38:10;19.00;99.90
12959;DHT22;6544;51.666;6.634;2022-09-13T03:40:41;19.00;99.90
12959;DHT22;6544;51.666;6.634;2022-09-13T03:43:12;19.00;99.90
12959;DHT22;6544;51.666;6.634;2022-09-13T03:45:43;18.90;1.00
12959;DHT22;6544;51.666;6.634;2022-09-13T03:48:12;18.80;1.00
12959;DHT22;6544;51.666;6.634;2022-09-13T03:50:41;18.80;1.00
12959;DHT22;6544;51.666;6.634;2022-09-13T03:53:10;18.90;1.00
12959;DHT22;6544;51.666;6.634;2022-09-13T03:55:39;19.00;1.00
12959;DHT22;6544;51.666;6.634;2022-09-13T03:58:09;19.00;99.90
12959;DHT22;6544;51.666;6.634;2022-09-13T04:00:36;18.90;1.00
12959;DHT22;6544;51.666;6.634;2022-09-13T04:03:05;18.90;1.00
12959;DHT22;6544;51.666;6.634;2022-09-13T04:05:31;19.00;1.00
12959;DHT22;6544;51.666;6.634;2022-09-13T04:08:01;18.90;1.00
12959;DHT22;6544;51.666;6.634;2022-09-13T04:10:30;18.90;1.00
12959;DHT22;6544;51.666;6.634;2022-09-13T04:12:56;18.90;1.00
12959;DHT22;6544;51.666;6.634;2022-09-13T04:15:27;19.00;1.00
12959;DHT22;6544;51.666;6.634;2022-09-13T04:17:55;19.00;1.00
12959;DHT22;6544;51.666;6.634;2022-09-13T04:20:22;19.00;1.00
12959;DHT22;6544;51.666;6.634;2022-09-13T04:22:53;19.00;1.00
12959;DHT22;6544;51.666;6.634;2022-09-13T04:25:22;18.90;1.00
12959;DHT22;6544;51.666;6.634;2022-09-13T04:27:53;18.90;1.00
12959;DHT22;6544;51.666;6.634;2022-09-13T04:30:20;18.80;1.00
12959;DHT22;6544;51.666;6.634;2022-09-13T04:32:47;18.80;1.00
12959;DHT22;6544;51.666;6.634;2022-09-13T04:35:15;18.80;1.00
12959;DHT22;6544;51.666;6.634;2022-09-13T04:37:44;18.90;1.00
12959;DHT22;6544;51.666;6.634;2022-09-13T04:40:11;18.80;1.00
12959;DHT22;6544;51.666;6.634;2022-09-13T04:42:40;18.80;1.00
12959;DHT22;6544;51.666;6.634;2022-09-13T04:45:09;18.90;1.00
12959;DHT22;6544;51.666;6.634;2022-09-13T04:47:36;18.80;1.00
12959;DHT22;6544;51.666;6.634;2022-09-13T04:50:04;18.80;1.00
12959;DHT22;6544;51.666;6.634;2022-09-13T04:52:31;18.80;1.00
12959;DHT22;6544;51.666;6.634;2022-09-13T04:54:59;18.80;1.00
12959;DHT22;6544;51.666;6.634;2022-09-13T04:57:27;18.80;1.00
12959;DHT22;6544;51.666;6.634;2022-09-13T04:59:55;18.80;1.00
12959;DHT22;6544;51.666;6.634;2022-09-13T05:02:22;18.80;1.00
12959;DHT22;6544;51.666;6.634;2022-09-13T05:04:49;18.80;1.00
12959;DHT22;6544;51.666;6.634;2022-09-13T05:07:16;18.80;1.00
12959;DHT22;6544;51.666;6.634;2022-09-13T05:09:43;18.70;1.00
12959;DHT22;6544;51.666;6.634;2022-09-13T05:12:10;18.70;1.00
12959;DHT22;6544;51.666;6.634;2022-09-13T05:14:37;18.70;1.00
12959;DHT22;6544;51.666;6.634;2022-09-13T05:17:06;18.70;1.00
12959;DHT22;6544;51.666;6.634;2022-09-13T05:19:33;18.60;1.00
12959;DHT22;6544;51.666;6.634;2022-09-13T05:22:00;18.20;1.00
12959;DHT22;6544;51.666;6.634;2022-09-13T05:24:27;18.20;1.00
12959;DHT22;6544;51.666;6.634;2022-09-13T05:26:54;18.40;1.00
12959;DHT22;6544;51.666;6.634;2022-09-13T05:29:21;18.40;1.00
12959;DHT22;6544;51.666;6.634;2022-09-13T05:31:48;18.30;1.00
12959;DHT22;6544;51.666;6.634;2022-09-13T05:34:18;18.40;1.00
12959;DHT22;6544;51.666;6.634;2022-09-13T05:36:45;18.40;1.00
12959;DHT22;6544;51.666;6.634;2022-09-13T05:39:15;18.40;1.00
12959;DHT22;6544;51.666;6.634;2022-09-13T05:41:43;18.50;1.00
12959;DHT22;6544;51.666;6.634;2022-09-13T05:44:10;18.60;1.00
12959;DHT22;6544;51.666;6.634;2022-09-13T05:46:37;18.60;1.00
12959;DHT22;6544;51.666;6.634;2022-09-13T05:49:04;18.60;1.00
12959;DHT22;6544;51.666;6.634;2022-09-13T05:51:32;18.50;1.00
12959;DHT22;6544;51.666;6.634;2022-09-13T05:53:59;18.60;1.00
12959;DHT22;6544;51.666;6.634;2022-09-13T05:56:27;18.70;1.00
12959;DHT22;6544;51.666;6.634;2022-09-13T05:58:54;18.70;1.00
12959;DHT22;6544;51.666;6.634;2022-09-13T06:01:23;18.70;1.00
12959;DHT22;6544;51.666;6.634;2022-09-13T06:03:51;18.70;1.00
12959;DHT22;6544;51.666;6.634;2022-09-13T06:06:19;18.60;1.00
12959;DHT22;6544;51.666;6.634;2022-09-13T06:08:51;18.60;1.00
12959;DHT22;6544;51.666;6.634;2022-09-13T06:11:18;18.60;1.00
12959;DHT22;6544;51.666;6.634;2022-09-13T06:13:45;18.60;1.00
12959;DHT22;6544;51.666;6.634;2022-09-13T06:16:12;18.50;1.00
12959;DHT22;6544;51.666;6.634;2022-09-13T06:18:40;18.50;1.00
12959;DHT22;6544;51.666;6.634;2022-09-13T06:21:09;18.60;1.00
12959;DHT22;6544;51.666;6.634;2022-09-13T06:23:36;18.60;1.00
12959;DHT22;6544;51.666;6.634;2022-09-13T06:26:07;18.50;1.00
12959;DHT22;6544;51.666;6.634;2022-09-13T06:28:35;18.60;1.00
12959;DHT22;6544;51.666;6.634;2022-09-13T06:31:03;18.70;1.00
12959;DHT22;6544;51.666;6.634;2022-09-13T06:33:31;18.60;1.00
12959;DHT22;6544;51.666;6.634;2022-09-13T06:35:59;18.50;1.00
12959;DHT22;6544;51.666;6.634;2022-09-13T06:38:27;18.40;1.00
12959;DHT22;6544;51.666;6.634;2022-09-13T06:41:01;18.50;1.00
12959;DHT22;6544;51.666;6.634;2022-09-13T06:43:30;18.60;1.00
12959;DHT22;6544;51.666;6.634;2022-09-13T06:46:01;18.80;1.00
12959;DHT22;6544;51.666;6.634;2022-09-13T06:48:31;18.70;1.00
12959;DHT22;6544;51.666;6.634;2022-09-13T06:51:00;18.70;1.00
12959;DHT22;6544;51.666;6.634;2022-09-13T06:53:28;18.80;1.00
12959;DHT22;6544;51.666;6.634;2022-09-13T06:56:02;18.80;1.00
12959;DHT22;6544;51.666;6.634;2022-09-13T06:58:32;18.80;1.00
12959;DHT22;6544;51.666;6.634;2022-09-13T07:01:07;18.90;1.00
12959;DHT22;6544;51.666;6.634;2022-09-13T07:03:36;19.00;1.00
12959;DHT22;6544;51.666;6.634;2022-09-13T07:06:11;19.10;99.90
12959;DHT22;6544;51.666;6.634;2022-09-13T07:08:39;19.10;1.00
12959;DHT22;6544;51.666;6.634;2022-09-13T07:11:06;19.20;1.00
12959;DHT22;6544;51.666;6.634;2022-09-13T07:13:35;19.20;99.90
12959;DHT22;6544;51.666;6.634;2022-09-13T07:16:03;19.20;99.90
12959;DHT22;6544;51.666;6.634;2022-09-13T07:18:32;19.20;99.90
12959;DHT22;6544;51.666;6.634;2022-09-13T07:21:00;19.30;1.00
12959;DHT22;6544;51.666;6.634;2022-09-13T07:23:31;19.40;99.90
12959;DHT22;6544;51.666;6.634;2022-09-13T07:25:59;19.40;99.90
12959;DHT22;6544;51.666;6.634;2022-09-13T07:28:30;19.50;99.90
12959;DHT22;6544;51.666;6.634;2022-09-13T07:31:06;19.50;99.90
12959;DHT22;6544;51.666;6.634;2022-09-13T07:33:33;19.60;99.90
12959;DHT22;6544;51.666;6.634;2022-09-13T07:36:00;19.70;99.90
12959;DHT22;6544;51.666;6.634;2022-09-13T07:38:31;19.70;99.90
12959;DHT22;6544;51.666;6.634;2022-09-13T07:40:58;19.70;99.90
12959;DHT22;6544;51.666;6.634;2022-09-13T07:43:25;19.80;99.90
12959;DHT22;6544;51.666;6.634;2022-09-13T07:45:56;19.80;99.90
12959;DHT22;6544;51.666;6.634;2022-09-13T07:48:25;19.90;99.90
12959;DHT22;6544;51.666;6.634;2022-09-13T07:50:59;19.80;99.90
12959;DHT22;6544;51.666;6.634;2022-09-13T07:53:26;19.90;99.90
12959;DHT22;6544;51.666;6.634;2022-09-13T07:55:58;19.90;99.90
12959;DHT22;6544;51.666;6.634;2022-09-13T07:58:25;20.00;99.90
12959;DHT22;6544;51.666;6.634;2022-09-13T08:00:52;19.80;99.90
12959;DHT22;6544;51.666;6.634;2022-09-13T08:03:19;19.90;99.90
12959;DHT22;6544;51.666;6.634;2022-09-13T08:05:47;19.90;99.90
12959;DHT22;6544;51.666;6.634;2022-09-13T08:08:14;20.00;99.90
12959;DHT22;6544;51.666;6.634;2022-09-13T08:10:41;20.00;99.90
12959;DHT22;6544;51.666;6.634;2022-09-13T08:13:08;20.20;99.90
12959;DHT22;6544;51.666;6.634;2022-09-13T08:15:35;20.30;99.90
12959;DHT22;6544;51.666;6.634;2022-09-13T08:18:01;20.40;99.90
12959;DHT22;6544;51.666;6.634;2022-09-13T08:20:28;20.50;99.90
12959;DHT22;6544;51.666;6.634;2022-09-13T08:22:57;20.50;99.90
12959;DHT22;6544;51.666;6.634;2022-09-13T08:25:24;20.50;99.90
12959;DHT22;6544;51.666;6.634;2022-09-13T08:27:52;20.60;99.90
12959;DHT22;6544;51.666;6.634;2022-09-13T08:30:19;20.70;99.90
12959;DHT22;6544;51.666;6.634;2022-09-13T08:32:49;20.80;99.90
12959;DHT22;6544;51.666;6.634;2022-09-13T08:35:16;20.60;99.90
12959;DHT22;6544;51.666;6.634;2022-09-13T08:37:43;20.80;99.90
12959;DHT22;6544;51.666;6.634;2022-09-13T08:40:11;20.90;99.90
12959;DHT22;6544;51.666;6.634;2022-09-13T08:42:47;20.90;99.90
12959;DHT22;6544;51.666;6.634;2022-09-13T08:45:16;21.00;99.90
12959;DHT22;6544;51.666;6.634;2022-09-13T08:47:47;20.90;99.90
12959;DHT22;6544;51.666;6.634;2022-09-13T08:50:20;20.80;99.90
12959;DHT22;6544;51.666;6.634;2022-09-13T08:53:02;20.80;99.90
12959;DHT22;6544;51.666;6.634;2022-09-13T08:55:49;20.90;99.90
12959;DHT22;6544;51.666;6.634;2022-09-13T08:58:36;20.80;99.90
12959;DHT22;6544;51.666;6.634;2022-09-13T09:01:17;20.90;99.90
12959;DHT22;6544;51.666;6.634;2022-09-13T09:03:52;21.00;99.90
12959;DHT22;6544;51.666;6.634;2022-09-13T09:06:22;21.10;99.90
12959;DHT22;6544;51.666;6.634;2022-09-13T09:08:51;21.20;99.90
12959;DHT22;6544;51.666;6.634;2022-09-13T09:11:29;21.40;99.90
12959;DHT22;6544;51.666;6.634;2022-09-13T09:14:00;21.50;43.30
12959;DHT22;6544;51.666;6.634;2022-09-13T09:16:34;21.50;26.60
12959;DHT22;6544;51.666;6.634;2022-09-13T09:19:10;21.60;1.00
12959;DHT22;6544;51.666;6.634;2022-09-13T09:21:39;21.60;20.80
12959;DHT22;6544;51.666;6.634;2022-09-13T09:24:09;21.70;2.40
12959;DHT22;6544;51.666;6.634;2022-09-13T09:26:38;21.70;47.00
12959;DHT22;6544;51.666;6.634;2022-09-13T09:29:13;21.70;51.70
12959;DHT22;6544;51.666;6.634;2022-09-13T09:31:44;21.70;3.50
12959;DHT22;6544;51.666;6.634;2022-09-13T09:34:19;21.80;46.30
12959;DHT22;6544;51.666;6.634;2022-09-13T09:36:53;21.80;1.00
12959;DHT22;6544;51.666;6.634;2022-09-13T09:39:25;22.00;1.00
12959;DHT22;6544;51.666;6.634;2022-09-13T09:41:55;22.00;1.00
12959;DHT22;6544;51.666;6.634;2022-09-13T09:44:25;22.00;16.10
12959;DHT22;6544;51.666;6.634;2022-09-13T09:46:55;22.10;1.00
12959;DHT22;6544;51.666;6.634;2022-09-13T09:49:29;21.90;22.20
12959;DHT22;6544;51.666;6.634;2022-09-13T09:52:17;22.00;53.10
12959;DHT22;6544;51.666;6.634;2022-09-13T09:54:48;22.20;1.00
12959;DHT22;6544;51.666;6.634;2022-09-13T09:57:17;22.20;7.80
12959;DHT22;6544;51.666;6.634;2022-09-13T09:59:45;22.40;1.40
12959;DHT22;6544;51.666;6.634;2022-09-13T10:02:15;22.60;1.00
12959;DHT22;6544;51.666;6.634;2022-09-13T10:04:53;22.50;1.00
12959;DHT22;6544;51.666;6.634;2022-09-13T10:07:25;22.50;1.00
12959;DHT22;6544;51.666;6.634;2022-09-13T10:09:58;22.60;1.00
12959;DHT22;6544;51.666;6.634;2022-09-13T10:12:33;22.70;1.00
12959;DHT22;6544;51.666;6.634;2022-09-13T10:15:22;22.90;1.00
12959;DHT22;6544;51.666;6.634;2022-09-13T10:18:05;23.10;1.00
12959;DHT22;6544;51.666;6.634;2022-09-13T10:20:38;23.20;1.00
12959;DHT22;6544;51.666;6.634;2022-09-13T10:23:14;23.30;1.00
12959;DHT22;6544;51.666;6.634;2022-09-13T10:25:44;23.30;1.00
12959;DHT22;6544;51.666;6.634;2022-09-13T10:28:15;23.30;1.00
12959;DHT22;6544;51.666;6.634;2022-09-13T10:30:46;23.00;1.00
12959;DHT22;6544;51.666;6.634;2022-09-13T10:33:27;23.10;1.00
12959;DHT22;6544;51.666;6.634;2022-09-13T10:35:57;23.20;1.00
12959;DHT22;6544;51.666;6.634;2022-09-13T10:38:28;23.50;1.00
12959;DHT22;6544;51.666;6.634;2022-09-13T10:40:57;23.70;1.00
12959;DHT22;6544;51.666;6.634;2022-09-13T10:43:29;23.90;1.00
12959;DHT22;6544;51.666;6.634;2022-09-13T10:45:57;23.80;1.00
12959;DHT22;6544;51.666;6.634;2022-09-13T10:48:27;23.70;1.00
12959;DHT22;6544;51.666;6.634;2022-09-13T10:51:04;23.90;1.00
12959;DHT22;6544;51.666;6.634;2022-09-13T10:53:35;24.10;1.00
12959;DHT22;6544;51.666;6.634;2022-09-13T10:56:03;23.90;1.00
12959;DHT22;6544;51.666;6.634;2022-09-13T10:58:31;23.50;1.00
12959;DHT22;6544;51.666;6.634;2022-09-13T11:01:29;23.30;1.00
12959;DHT22;6544;51.666;6.634;2022-09-13T11:07:33;23.90;1.00
12959;DHT22;6544;51.666;6.634;2022-09-13T11:10:07;23.70;1.00
12959;DHT22;6544;51.666;6.634;2022-09-13T11:12:41;23.70;1.00
12959;DHT22;6544;51.666;6.634;2022-09-13T11:15:24;24.00;1.00
12959;DHT22;6544;51.666;6.634;2022-09-13T11:18:08;24.10;1.00
12959;DHT22;6544;51.666;6.634;2022-09-13T11:20:46;24.10;1.00
12959;DHT22;6544;51.666;6.634;2022-09-13T11:23:40;24.00;1.00
12959;DHT22;6544;51.666;6.634;2022-09-13T11:29:12;23.80;1.00
12959;DHT22;6544;51.666;6.634;2022-09-13T11:31:50;23.50;1.00
12959;DHT22;6544;51.666;6.634;2022-09-13T11:34:36;23.50;1.00
12959;DHT22;6544;51.666;6.634;2022-09-13T11:37:31;23.70;1.00
12959;DHT22;6544;51.666;6.634;2022-09-13T11:40:14;23.70;1.00
12959;DHT22;6544;51.666;6.634;2022-09-13T11:42:52;23.50;1.00
12959;DHT22;6544;51.666;6.634;2022-09-13T11:45:24;23.60;1.00
12959;DHT22;6544;51.666;6.634;2022-09-13T11:48:12;23.30;1.00
12959;DHT22;6544;51.666;6.634;2022-09-13T11:50:46;23.50;1.00
12959;DHT22;6544;51.666;6.634;2022-09-13T11:53:36;23.70;1.00
12959;DHT22;6544;51.666;6.634;2022-09-13T11:56:09;24.00;1.00
12959;DHT22;6544;51.666;6.634;2022-09-13T11:58:43;24.40;1.00
12959;DHT22;6544;51.666;6.634;2022-09-13T12:01:16;24.60;1.00
12959;DHT22;6544;51.666;6.634;2022-09-13T12:03:50;24.40;1.00
12959;DHT22;6544;51.666;6.634;2022-09-13T12:06:23;24.20;1.00
12959;DHT22;6544;51.666;6.634;2022-09-13T12:08:55;24.30;1.00
12959;DHT22;6544;51.666;6.634;2022-09-13T12:11:26;24.40;1.00
12959;DHT22;6544;51.666;6.634;2022-09-13T12:13:58;24.50;1.00
12959;DHT22;6544;51.666;6.634;2022-09-13T12:16:29;25.00;1.00
12959;DHT22;6544;51.666;6.634;2022-09-13T12:19:00;24.80;1.00
12959;DHT22;6544;51.666;6.634;2022-09-13T12:21:31;24.90;1.00
12959;DHT22;6544;51.666;6.634;2022-09-13T12:24:04;25.20;1.00
12959;DHT22;6544;51.666;6.634;2022-09-13T12:26:37;25.50;1.00
12959;DHT22;6544;51.666;6.634;2022-09-13T12:29:12;25.60;1.00
12959;DHT22;6544;51.666;6.634;2022-09-13T12:31:40;25.80;1.00
12959;DHT22;6544;51.666;6.634;2022-09-13T12:34:16;25.80;99.90
12959;DHT22;6544;51.666;6.634;2022-09-13T12:37:06;25.50;99.90
12959;DHT22;6544;51.666;6.634;2022-09-13T12:39:49;25.00;1.00
12959;DHT22;6544;51.666;6.634;2022-09-13T12:45:43;24.60;1.00
12959;DHT22;6544;51.666;6.634;2022-09-13T12:48:33;24.40;1.00
12959;DHT22;6544;51.666;6.634;2022-09-13T12:51:20;24.50;1.00
12959;DHT22;6544;51.666;6.634;2022-09-13T12:54:35;24.40;1.00
12959;DHT22;6544;51.666;6.634;2022-09-13T12:57:42;24.20;1.00
12959;DHT22;6544;51.666;6.634;2022-09-13T13:00:17;23.80;1.00
12959;DHT22;6544;51.666;6.634;2022-09-13T13:02:52;24.10;1.00
12959;DHT22;6544;51.666;6.634;2022-09-13T13:05:28;23.90;1.00
12959;DHT22;6544;51.666;6.634;2022-09-13T13:08:02;24.00;1.00
12959;DHT22;6544;51.666;6.634;2022-09-13T13:10:33;24.30;1.00
12959;DHT22;6544;51.666;6.634;2022-09-13T13:13:12;24.10;1.00
12959;DHT22;6544;51.666;6.634;2022-09-13T13:16:02;23.80;1.00
12959;DHT22;6544;51.666;6.634;2022-09-13T13:18:31;23.80;1.00
12959;DHT22;6544;51.666;6.634;2022-09-13T13:21:25;24.00;1.00
12959;DHT22;6544;51.666;6.634;2022-09-13T13:26:58;23.80;1.00
12959;DHT22;6544;51.666;6.634;2022-09-13T13:29:26;24.00;1.00
12959;DHT22;6544;51.666;6.634;2022-09-13T13:32:08;24.00;1.00
12959;DHT22;6544;51.666;6.634;2022-09-13T13:34:45;24.10;1.00
12959;DHT22;6544;51.666;6.634;2022-09-13T13:37:32;24.20;1.00
12959;DHT22;6544;51.666;6.634;2022-09-13T13:40:26;24.30;1.00
12959;DHT22;6544;51.666;6.634;2022-09-13T13:43:27;24.70;1.00
12959;DHT22;6544;51.666;6.634;2022-09-13T13:48:41;24.60;1.00
12959;DHT22;6544;51.666;6.634;2022-09-13T13:51:14;24.20;1.00
12959;DHT22;6544;51.666;6.634;2022-09-13T13:53:44;24.20;1.00
12959;DHT22;6544;51.666;6.634;2022-09-13T13:56:33;24.10;1.00
12959;DHT22;6544;51.666;6.634;2022-09-13T13:59:14;24.20;1.00
12959;DHT22;6544;51.666;6.634;2022-09-13T14:01:45;24.60;1.00
12959;DHT22;6544;51.666;6.634;2022-09-13T14:10:37;25.10;1.00
12959;DHT22;6544;51.666;6.634;2022-09-13T14:13:36;24.90;1.00
12959;DHT22;6544;51.666;6.634;2022-09-13T14:16:16;24.90;1.00
12959;DHT22;6544;51.666;6.634;2022-09-13T14:19:07;24.80;1.00
12959;DHT22;6544;51.666;6.634;2022-09-13T14:21:35;24.70;1.00
12959;DHT22;6544;51.666;6.634;2022-09-13T14:24:17;24.60;1.00
12959;DHT22;6544;51.666;6.634;2022-09-13T14:26:45;24.60;1.00
12959;DHT22;6544;51.666;6.634;2022-09-13T14:29:16;24.30;1.00
12959;DHT22;6544;51.666;6.634;2022-09-13T14:31:47;24.20;1.00
12959;DHT22;6544;51.666;6.634;2022-09-13T14:34:26;24.10;1.00
12959;DHT22;6544;51.666;6.634;2022-09-13T14:36:56;24.00;1.00
12959;DHT22;6544;51.666;6.634;2022-09-13T14:39:24;24.10;1.00
12959;DHT22;6544;51.666;6.634;2022-09-13T14:41:57;24.30;1.00
12959;DHT22;6544;51.666;6.634;2022-09-13T14:44:27;24.30;1.00
12959;DHT22;6544;51.666;6.634;2022-09-13T14:47:02;23.70;1.00
12959;DHT22;6544;51.666;6.634;2022-09-13T14:49:33;23.70;1.00
12959;DHT22;6544;51.666;6.634;2022-09-13T14:52:03;23.90;1.00
12959;DHT22;6544;51.666;6.634;2022-09-13T14:54:35;24.00;1.00
12959;DHT22;6544;51.666;6.634;2022-09-13T14:57:05;24.20;1.00
12959;DHT22;6544;51.666;6.634;2022-09-13T14:59:40;24.30;1.00
12959;DHT22;6544;51.666;6.634;2022-09-13T15:02:17;23.80;1.00
12959;DHT22;6544;51.666;6.634;2022-09-13T15:04:47;23.80;1.00
12959;DHT22;6544;51.666;6.634;2022-09-13T15:07:21;23.90;1.00
12959;DHT22;6544;51.666;6.634;2022-09-13T15:10:04;24.10;1.00
12959;DHT22;6544;51.666;6.634;2022-09-13T15:12:31;23.90;1.00
12959;DHT22;6544;51.666;6.634;2022-09-13T15:15:33;23.70;1.00
12959;DHT22;6544;51.666;6.634;2022-09-13T15:18:03;23.80;1.00
12959;DHT22;6544;51.666;6.634;2022-09-13T15:20:44;23.90;1.00
12959;DHT22;6544;51.666;6.634;2022-09-13T15:23:14;23.80;1.00
12959;DHT22;6544;51.666;6.634;2022-09-13T15:25:47;23.60;1.00
12959;DHT22;6544;51.666;6.634;2022-09-13T15:28:24;23.70;1.00
12959;DHT22;6544;51.666;6.634;2022-09-13T15:30:52;23.70;1.00
12959;DHT22;6544;51.666;6.634;2022-09-13T15:33:25;23.80;1.00
12959;DHT22;6544;51.666;6.634;2022-09-13T15:36:21;23.60;1.00
12959;DHT22;6544;51.666;6.634;2022-09-13T15:39:00;23.60;1.00
12959;DHT22;6544;51.666;6.634;2022-09-13T15:41:29;23.60;1.00
12959;DHT22;6544;51.666;6.634;2022-09-13T15:43:57;23.60;1.00
12959;DHT22;6544;51.666;6.634;2022-09-13T15:46:24;23.70;1.00
12959;DHT22;6544;51.666;6.634;2022-09-13T15:48:54;23.70;1.00
12959;DHT22;6544;51.666;6.634;2022-09-13T15:51:22;23.60;1.00
12959;DHT22;6544;51.666;6.634;2022-09-13T15:53:49;23.70;1.00
12959;DHT22;6544;51.666;6.634;2022-09-13T15:56:20;23.60;1.00
12959;DHT22;6544;51.666;6.634;2022-09-13T15:58:48;23.60;1.00
12959;DHT22;6544;51.666;6.634;2022-09-13T16:01:15;23.80;1.00
12959;DHT22;6544;51.666;6.634;2022-09-13T16:03:42;23.90;1.00
12959;DHT22;6544;51.666;6.634;2022-09-13T16:06:11;23.80;1.00
12959;DHT22;6544;51.666;6.634;2022-09-13T16:08:38;23.60;1.00
12959;DHT22;6544;51.666;6.634;2022-09-13T16:11:06;23.50;1.00
12959;DHT22;6544;51.666;6.634;2022-09-13T16:13:33;23.50;1.00
12959;DHT22;6544;51.666;6.634;2022-09-13T16:16:01;23.50;1.00
12959;DHT22;6544;51.666;6.634;2022-09-13T16:18:29;23.60;1.00
12959;DHT22;6544;51.666;6.634;2022-09-13T16:20:56;23.70;1.00
12959;DHT22;6544;51.666;6.634;2022-09-13T16:23:25;23.40;1.00
12959;DHT22;6544;51.666;6.634;2022-09-13T16:25:54;23.30;1.00
12959;DHT22;6544;51.666;6.634;2022-09-13T16:28:24;23.10;1.00
12959;DHT22;6544;51.666;6.634;2022-09-13T16:30:52;23.30;1.00
12959;DHT22;6544;51.666;6.634;2022-09-13T16:33:19;23.30;1.00
12959;DHT22;6544;51.666;6.634;2022-09-13T16:35:46;23.30;1.00
12959;DHT22;6544;51.666;6.634;2022-09-13T16:38:13;23.10;1.00
12959;DHT22;6544;51.666;6.634;2022-09-13T16:40:43;23.20;1.00
12959;DHT22;6544;51.666;6.634;2022-09-13T16:43:10;23.10;1.00
12959;DHT22;6544;51.666;6.634;2022-09-13T16:45:39;22.90;1.00
12959;DHT22;6544;51.666;6.634;2022-09-13T16:48:06;23.00;1.00
12959;DHT22;6544;51.666;6.634;2022-09-13T16:50:33;23.00;1.00
12959;DHT22;6544;51.666;6.634;2022-09-13T16:53:00;23.10;1.00